Time;durP1;ratioP1;P1;durP2;ratioP2;P2;SDS_P1;SDS_P2;PMS_P1;PMS_P2;Temp;Humidity;BMP_temperature;BMP_pressure;BME280_temperature;BME280_humidity;BME280_pressure;Samples;Min_cycle;Max_cycle;Signal;HPM_P1;HPM_P2
2022/04/01 00:01:39;;;;;;;346.40;88.10;;;;;;;4.87;100.00;98448.47;5024515;28;20654;-65
2022/04/01 00:04:05;;;;;;;339.97;87.93;;;;;;;4.91;100.00;98447.56;5019008;28;20517;-65
2022/04/01 00:06:30;;;;;;;370.07;96.53;;;;;;;4.88;100.00;98447.59;5023522;28;20222;-66
2022/04/01 00:08:55;;;;;;;340.87;86.97;;;;;;;4.90;100.00;98453.56;5022753;28;21747;-65
2022/04/01 00:11:20;;;;;;;384.27;97.27;;;;;;;4.90;100.00;98445.88;5024758;28;20184;-65
2022/04/01 00:13:46;;;;;;;312.27;83.30;;;;;;;4.91;100.00;98451.84;5025281;28;20266;-66
2022/04/01 00:16:11;;;;;;;309.23;84.50;;;;;;;4.94;100.00;98450.06;5026388;28;20293;-65
2022/04/01 00:18:37;;;;;;;378.40;98.50;;;;;;;4.94;100.00;98450.06;5023326;28;20257;-66
2022/04/01 00:21:02;;;;;;;337.23;90.70;;;;;;;4.99;100.00;98452.56;5025757;28;20250;-65
2022/04/01 00:23:28;;;;;;;372.13;101.20;;;;;;;4.99;100.00;98455.13;5029014;28;20191;-65
2022/04/01 00:25:54;;;;;;;391.50;100.90;;;;;;;4.98;100.00;98449.16;5026030;28;20179;-66
2022/04/01 00:28:19;;;;;;;355.27;93.00;;;;;;;4.95;100.00;98450.91;5028080;28;20207;-64
2022/04/01 00:30:44;;;;;;;336.17;92.17;;;;;;;4.93;100.00;98447.53;5025192;28;20185;-65
2022/04/01 00:33:10;;;;;;;304.63;82.90;;;;;;;4.98;100.00;98449.16;5026351;28;20222;-66
2022/04/01 00:35:36;;;;;;;343.17;89.87;;;;;;;5.03;100.00;98451.66;5028565;28;20230;-65
2022/04/01 00:38:02;;;;;;;349.07;92.73;;;;;;;5.06;100.00;98458.44;5022317;28;20192;-65
2022/04/01 00:40:27;;;;;;;328.70;91.37;;;;;;;5.07;100.00;98449.88;5027417;28;20187;-65
2022/04/01 00:42:53;;;;;;;315.67;84.53;;;;;;;5.07;100.00;98445.59;5028891;28;20186;-65
2022/04/01 00:45:18;;;;;;;361.07;97.70;;;;;;;5.11;100.00;98451.53;5031002;28;20202;-65
2022/04/01 00:47:44;;;;;;;330.50;89.93;;;;;;;5.10;100.00;98449.84;5021952;28;20198;-65
2022/04/01 00:50:10;;;;;;;335.97;92.30;;;;;;;5.09;100.00;98448.97;5022810;28;21009;-65
2022/04/01 00:52:36;;;;;;;357.47;95.67;;;;;;;5.09;100.00;98446.41;5027772;28;20279;-65
2022/04/01 00:55:05;;;;;;;384.93;101.80;;;;;;;5.08;100.00;98449.00;5019157;28;20261;-65
2022/04/01 00:57:31;;;;;;;386.43;102.93;;;;;;;5.07;100.00;98445.59;5024815;28;20214;-65
2022/04/01 00:59:57;;;;;;;370.07;99.00;;;;;;;5.01;100.00;98449.09;5024742;28;20251;-65
2022/04/01 01:02:22;;;;;;;392.57;103.73;;;;;;;5.01;100.00;98450.81;5027329;28;20199;-65
2022/04/01 01:04:47;;;;;;;372.37;102.87;;;;;;;4.95;100.00;98451.78;5025339;28;20184;-65
2022/04/01 01:07:14;;;;;;;380.27;103.50;;;;;;;4.94;100.00;98452.66;5023571;28;20199;-64
2022/04/01 01:09:41;;;;;;;393.53;103.43;;;;;;;4.97;100.00;98449.19;5026651;28;20223;-65
2022/04/01 01:12:07;;;;;;;432.20;108.73;;;;;;;4.95;100.00;98444.09;5021931;28;20201;-65
2022/04/01 01:14:36;;;;;;;399.93;100.03;;;;;;;4.95;100.00;98445.78;5023790;28;20195;-64
2022/04/01 01:17:05;;;;;;;412.17;107.33;;;;;;;4.96;100.00;98444.91;5022363;28;20224;-65
2022/04/01 01:19:31;;;;;;;428.70;109.13;;;;;;;4.91;100.00;98441.59;5024458;28;20219;-65
2022/04/01 01:21:57;;;;;;;412.20;108.40;;;;;;;4.92;100.00;98445.81;5023640;28;20199;-64
2022/04/01 01:24:38;;;;;;;389.13;104.17;;;;;;;4.86;100.00;98445.06;5027014;28;20199;-64
2022/04/01 01:27:06;;;;;;;462.27;110.70;;;;;;;4.77;100.00;98446.94;5023813;28;20274;-64
2022/04/01 01:29:33;;;;;;;472.30;110.67;;;;;;;4.78;100.00;98448.63;5019376;28;20688;-66
2022/04/01 01:32:01;;;;;;;434.73;106.73;;;;;;;4.70;100.00;98447.00;5021935;28;20646;-64
2022/04/01 01:34:28;;;;;;;393.67;101.13;;;;;;;4.67;100.00;98443.66;5023471;28;20190;-64
2022/04/01 01:36:54;;;;;;;426.73;106.77;;;;;;;4.57;100.00;98433.53;5024393;28;20571;-64
2022/04/01 01:39:20;;;;;;;383.00;100.00;;;;;;;4.60;100.00;98442.88;5023640;28;20216;-64
2022/04/01 01:41:46;;;;;;;395.20;106.10;;;;;;;4.48;100.00;98438.78;5030912;28;20663;-64
2022/04/01 01:44:13;;;;;;;417.53;103.37;;;;;;;4.47;100.00;98438.81;5025337;28;20229;-64
2022/04/01 01:46:38;;;;;;;389.40;103.53;;;;;;;4.54;100.00;98440.41;5022162;28;20195;-64
2022/04/01 01:49:05;;;;;;;432.20;106.37;;;;;;;4.49;100.00;98434.53;5024421;28;20558;-64
2022/04/01 01:56:59;;;;;;;490.27;118.40;;;;;;;4.50;100.00;98431.94;5022801;28;20258;-64
2022/04/01 01:59:26;;;;;;;457.37;110.63;;;;;;;4.44;100.00;98439.72;5026243;28;20291;-64
2022/04/01 02:01:52;;;;;;;456.83;115.53;;;;;;;4.43;100.00;98432.91;5024936;28;20227;-64
2022/04/01 02:04:18;;;;;;;448.57;113.97;;;;;;;4.43;100.00;98438.84;5023283;28;20214;-64
2022/04/01 02:06:44;;;;;;;429.60;111.43;;;;;;;4.45;100.00;98435.44;5023405;28;20184;-65
2022/04/01 02:09:09;;;;;;;421.07;105.40;;;;;;;4.47;100.00;98439.66;5021570;28;20775;-64
2022/04/01 02:11:37;;;;;;;438.90;113.53;;;;;;;4.53;100.00;98438.75;5024577;28;20238;-64
2022/04/01 02:14:03;;;;;;;448.30;113.37;;;;;;;4.54;100.00;98437.84;5023877;28;20191;-65
2022/04/01 02:16:28;;;;;;;453.13;113.03;;;;;;;4.53;100.00;98434.44;5021875;28;20572;-64
2022/04/01 02:18:54;;;;;;;450.40;117.73;;;;;;;4.56;100.00;98436.97;5024281;28;20501;-65
2022/04/01 02:21:20;;;;;;;397.13;100.90;;;;;;;4.52;100.00;98439.59;5025540;28;20199;-64
2022/04/01 02:23:47;;;;;;;432.23;112.53;;;;;;;4.53;100.00;98437.00;5025884;28;20283;-65
2022/04/01 02:26:14;;;;;;;486.50;119.07;;;;;;;4.53;100.00;98443.88;5021143;28;21804;-64
2022/04/01 02:28:41;;;;;;;427.43;108.97;;;;;;;4.46;100.00;98440.53;5016369;28;20208;-64
2022/04/01 02:31:08;;;;;;;445.83;111.77;;;;;;;4.49;100.00;98448.16;5022730;28;20195;-64
2022/04/01 02:33:35;;;;;;;366.87;99.67;;;;;;;4.49;100.00;98447.31;5023952;28;20199;-64
2022/04/01 02:36:02;;;;;;;486.53;120.87;;;;;;;4.52;100.00;98445.56;5022767;28;20207;-66
2022/04/01 02:38:29;;;;;;;451.43;111.23;;;;;;;4.51;100.00;98445.59;5020199;28;20312;-64
2022/04/01 02:40:56;;;;;;;416.73;108.07;;;;;;;4.49;100.00;98439.66;5024298;28;20195;-65
2022/04/01 02:43:22;;;;;;;406.07;103.20;;;;;;;4.49;100.00;98447.31;5031474;28;20187;-64
2022/04/01 02:45:48;;;;;;;434.80;112.23;;;;;;;4.49;100.00;98449.88;5038436;28;20579;-65
2022/04/01 02:48:18;;;;;;;399.87;104.67;;;;;;;4.39;100.00;98444.88;5028887;28;22487;-64
2022/04/01 02:50:45;;;;;;;462.50;112.03;;;;;;;4.31;100.00;98445.88;5025043;28;20287;-65
2022/04/01 02:53:11;;;;;;;427.73;106.07;;;;;;;4.34;100.00;98448.38;5021814;28;20195;-65
2022/04/01 02:55:37;;;;;;;409.57;104.03;;;;;;;4.30;100.00;98437.31;5027301;28;20303;-64
2022/04/01 02:58:05;;;;;;;398.43;100.80;;;;;;;4.22;100.00;98449.41;5022376;28;20188;-64
2022/04/01 03:00:30;;;;;;;415.97;101.93;;;;;;;4.20;100.00;98451.13;5024248;28;20278;-64
2022/04/01 03:02:56;;;;;;;428.20;107.07;;;;;;;4.25;100.00;98450.19;5018421;28;20274;-64
2022/04/01 03:05:21;;;;;;;428.23;105.27;;;;;;;4.18;100.00;98450.28;5024993;28;20183;-65
2022/04/01 03:07:47;;;;;;;438.67;105.07;;;;;;;4.18;100.00;98440.06;5021108;28;20229;-64
2022/04/01 03:10:12;;;;;;;403.83;99.57;;;;;;;4.16;100.00;98454.59;5019900;28;20225;-64
2022/04/01 03:12:38;;;;;;;453.77;108.53;;;;;;;4.17;100.00;98449.44;5024594;28;20195;-65
2022/04/01 03:15:04;;;;;;;440.67;107.67;;;;;;;4.19;100.00;98455.38;5025743;28;20187;-64
2022/04/01 03:17:31;;;;;;;403.23;102.83;;;;;;;4.20;100.00;98449.41;5018781;28;20348;-64
2022/04/01 03:19:59;;;;;;;383.83;99.80;;;;;;;4.19;100.00;98452.00;5022366;28;20208;-64
2022/04/01 03:22:25;;;;;;;441.73;104.87;;;;;;;4.16;100.00;98450.28;5018435;28;20195;-64
2022/04/01 03:24:50;;;;;;;396.77;98.77;;;;;;;4.19;100.00;98452.00;5017838;28;20222;-65
2022/04/01 03:27:15;;;;;;;360.30;93.37;;;;;;;4.21;100.00;98452.81;5023323;28;20230;-64
2022/04/01 03:29:41;;;;;;;449.90;107.07;;;;;;;4.24;100.00;98453.63;5023309;28;20694;-65
2022/04/01 03:32:07;;;;;;;476.53;112.10;;;;;;;4.20;100.00;98449.41;5025270;28;20543;-64
2022/04/01 03:34:33;;;;;;;405.17;98.73;;;;;;;4.19;100.00;98455.38;5022037;28;20559;-64
2022/04/01 03:36:58;;;;;;;431.57;101.90;;;;;;;4.20;100.00;98453.69;5019069;28;20323;-64
2022/04/01 03:39:27;;;;;;;387.37;95.90;;;;;;;4.19;100.00;98454.56;5024620;28;20207;-64
2022/04/01 03:41:53;;;;;;;415.37;102.47;;;;;;;4.25;100.00;98462.13;5022479;28;20195;-64
2022/04/01 03:44:21;;;;;;;393.83;97.37;;;;;;;4.16;100.00;98457.97;5023699;28;20666;-64
2022/04/01 03:46:50;;;;;;;427.10;102.97;;;;;;;4.14;100.00;98458.88;5025969;28;20179;-64
2022/04/01 03:49:24;;;;;;;417.20;103.33;;;;;;;4.11;100.00;98463.16;5027531;28;20226;-64
2022/04/01 03:51:50;;;;;;;342.87;96.03;;;;;;;4.08;100.00;98463.19;5029427;28;20653;-65
2022/04/01 03:54:17;;;;;;;396.37;97.63;;;;;;;4.00;100.00;98472.69;5026199;28;20602;-65
2022/04/01 03:56:49;;;;;;;386.23;93.70;;;;;;;3.97;100.00;98478.69;5027022;28;20250;-65
2022/04/01 03:59:17;;;;;;;387.77;97.37;;;;;;;3.95;100.00;98474.44;5027145;28;20227;-64
2022/04/01 04:01:42;;;;;;;430.53;102.60;;;;;;;3.90;100.00;98469.38;5027268;28;20632;-64
2022/04/01 04:04:09;;;;;;;374.77;97.50;;;;;;;3.86;100.00;98472.81;5025558;28;20210;-64
2022/04/01 04:06:36;;;;;;;415.20;101.13;;;;;;;3.83;100.00;98464.34;5026430;28;20220;-64
2022/04/01 04:09:03;;;;;;;380.83;96.83;;;;;;;3.79;100.00;98468.66;5030482;28;20242;-64
2022/04/01 04:11:31;;;;;;;405.70;96.97;;;;;;;3.83;100.00;98465.22;5023906;28;20679;-64
2022/04/01 04:13:58;;;;;;;392.53;98.87;;;;;;;3.79;100.00;98471.22;5023211;28;20202;-64
2022/04/01 04:16:34;;;;;;;365.63;91.70;;;;;;;3.79;100.00;98477.16;5029598;28;20212;-64
2022/04/01 04:19:00;;;;;;;403.70;99.90;;;;;;;3.82;100.00;98478.88;5025166;28;20226;-64
2022/04/01 04:21:31;;;;;;;501.07;121.13;;;;;;;3.72;100.00;98478.13;5030160;28;20187;-63
2022/04/01 04:24:07;;;;;;;511.30;118.37;;;;;;;3.75;100.00;98490.00;5032734;28;20602;-63
2022/04/01 04:26:35;;;;;;;457.30;106.50;;;;;;;3.74;100.00;98488.31;5029805;28;20550;-64
2022/04/01 04:29:12;;;;;;;350.03;94.73;;;;;;;3.77;100.00;98485.72;5047907;28;20211;-63
2022/04/01 04:31:43;;;;;;;349.17;92.63;;;;;;;3.80;100.00;98488.25;5022335;28;20200;-64
2022/04/01 04:34:10;;;;;;;388.07;98.20;;;;;;;3.70;100.00;98492.63;5034085;28;20240;-64
2022/04/01 04:36:39;;;;;;;386.60;97.37;;;;;;;3.70;100.00;98489.22;5031761;28;20294;-63
2022/04/01 04:39:06;;;;;;;349.50;94.23;;;;;;;3.63;100.00;98496.13;5029434;28;20625;-63
2022/04/01 04:41:33;;;;;;;401.13;103.13;;;;;;;3.64;100.00;98490.13;5031965;28;20286;-62
2022/04/01 04:43:59;;;;;;;427.93;107.07;;;;;;;3.59;100.00;98499.56;5029566;28;20187;-63
2022/04/01 04:46:26;;;;;;;399.10;99.90;;;;;;;3.61;100.00;98500.41;5032167;28;20251;-63
2022/04/01 04:48:54;;;;;;;364.80;98.47;;;;;;;3.56;100.00;98500.41;5029555;28;20222;-63
2022/04/01 04:51:23;;;;;;;330.10;92.50;;;;;;;3.47;100.00;98506.50;5028537;28;20187;-63
2022/04/01 04:53:49;;;;;;;428.73;107.93;;;;;;;3.41;100.00;98503.97;5026176;28;20274;-62
2022/04/01 04:56:15;;;;;;;384.30;103.37;;;;;;;3.45;100.00;98507.34;5027753;28;20551;-63
2022/04/01 04:58:43;;;;;;;372.97;100.73;;;;;;;3.50;100.00;98513.28;5033869;28;20207;-63
2022/04/01 05:01:27;;;;;;;435.87;110.20;;;;;;;3.42;100.00;98513.34;5030646;28;20544;-63
2022/04/01 05:03:53;;;;;;;360.57;96.03;;;;;;;3.45;100.00;98517.59;5034317;28;20191;-62
2022/04/01 05:06:26;;;;;;;390.13;102.17;;;;;;;3.49;100.00;98517.53;5031644;28;20253;-63
2022/04/01 05:09:14;;;;;;;433.57;105.63;;;;;;;3.52;100.00;98526.91;5015361;28;20214;-63
2022/04/01 05:11:52;;;;;;;445.67;110.70;;;;;;;3.51;100.00;98518.38;5029944;28;20675;-63
2022/04/01 05:14:45;;;;;;;361.13;96.67;;;;;;;3.47;100.00;98532.06;5032521;28;20210;-63
2022/04/01 05:17:24;;;;;;;360.80;94.87;;;;;;;3.47;100.00;98531.22;5022745;28;20222;-62
2022/04/01 05:20:00;;;;;;;451.67;110.07;;;;;;;3.55;100.00;98536.25;5022272;28;20223;-64
2022/04/01 05:22:36;;;;;;;372.13;97.00;;;;;;;3.54;100.00;98537.13;5029423;28;20538;-62
2022/04/01 05:25:04;;;;;;;409.30;102.60;;;;;;;3.57;100.00;98544.78;5028763;28;20321;-62
2022/04/01 05:27:30;;;;;;;512.37;119.50;;;;;;;3.47;100.00;98538.88;5030876;28;20698;-62
2022/04/01 05:30:18;;;;;;;419.10;107.43;;;;;;;3.47;100.00;98544.84;5030791;28;20203;-62
2022/04/01 05:32:59;;;;;;;349.53;98.90;;;;;;;3.42;100.00;98545.72;5025326;28;20531;-62
2022/04/01 05:35:27;;;;;;;340.87;96.03;;;;;;;3.45;100.00;98546.56;5021462;28;20653;-63
2022/04/01 05:37:54;;;;;;;361.63;100.77;;;;;;;3.47;100.00;98554.22;5022906;28;20191;-63
2022/04/01 05:40:21;;;;;;;380.67;101.13;;;;;;;3.50;100.00;98547.38;5024377;28;20207;-63
2022/04/01 05:42:47;;;;;;;369.77;100.90;;;;;;;3.42;100.00;98555.97;5024020;28;20350;-63
2022/04/01 05:45:13;;;;;;;425.87;103.73;;;;;;;3.42;100.00;98558.50;5027712;28;20187;-63
2022/04/01 05:47:39;;;;;;;479.93;117.57;;;;;;;3.36;100.00;98551.75;5023886;28;20215;-62
2022/04/01 05:50:06;;;;;;;377.07;101.00;;;;;;;3.39;100.00;98564.50;5018926;28;20219;-62
2022/04/01 05:52:34;;;;;;;403.33;107.97;;;;;;;3.37;100.00;98562.84;5025490;28;20698;-63
2022/04/01 05:55:00;;;;;;;303.80;91.40;;;;;;;3.28;100.00;98571.41;5025641;28;20520;-63
2022/04/01 05:57:26;;;;;;;281.67;92.90;;;;;;;3.24;100.00;98570.59;5030664;28;20206;-62
2022/04/01 05:59:51;;;;;;;248.83;87.80;;;;;;;3.23;100.00;98574.00;5033979;28;20683;-62
2022/04/01 06:02:31;;;;;;;254.00;89.10;;;;;;;3.23;100.00;98571.47;5024187;28;20667;-62
2022/04/01 06:05:34;;;;;;;240.07;87.27;;;;;;;3.21;100.00;98580.84;5025538;28;20318;-64
2022/04/01 06:08:18;;;;;;;223.43;84.10;;;;;;;3.20;100.00;98586.81;5029864;28;20282;-64
2022/04/01 06:11:03;;;;;;;204.93;82.73;;;;;;;3.08;100.00;98586.91;5026494;28;20252;-62
2022/04/01 06:13:50;;;;;;;202.17;82.70;;;;;;;3.14;100.00;98576.63;5028335;28;20198;-65
2022/04/01 06:16:20;;;;;;;185.10;80.00;;;;;;;3.16;100.00;98580.88;5027741;28;20207;-62
2022/04/01 06:18:54;;;;;;;171.77;75.33;;;;;;;3.12;100.00;98580.88;5027712;28;20230;-62
2022/04/01 06:21:26;;;;;;;173.83;77.10;;;;;;;3.19;100.00;98597.91;5021379;28;20560;-62
2022/04/01 06:24:08;;;;;;;155.33;72.37;;;;;;;3.21;100.00;98596.19;5028792;28;20192;-63
2022/04/01 06:26:46;;;;;;;153.43;70.07;;;;;;;3.17;100.00;98592.81;5023678;28;20183;-63
2022/04/01 06:29:30;;;;;;;136.97;67.53;;;;;;;3.17;100.00;98597.91;5021897;28;20207;-62
2022/04/01 06:32:07;;;;;;;139.80;69.30;;;;;;;3.19;100.00;98608.94;5108796;27;20578;-63
2022/04/01 06:34:33;;;;;;;145.43;69.30;;;;;;;3.26;100.00;98612.31;5096094;28;20207;-63
2022/04/01 06:37:03;;;;;;;131.70;66.93;;;;;;;3.18;100.00;98616.66;5087773;28;20185;-63
2022/04/01 06:39:53;;;;;;;148.40;70.93;;;;;;;3.28;100.00;98620.00;5087413;28;20216;-63
2022/04/01 06:42:22;;;;;;;129.70;64.73;;;;;;;3.24;100.00;98621.72;5080844;28;20273;-63
2022/04/01 06:44:48;;;;;;;135.10;66.73;;;;;;;3.33;100.00;98629.34;5074549;28;20185;-63
2022/04/01 06:47:14;;;;;;;130.20;66.97;;;;;;;3.33;100.00;98623.34;5080031;28;20176;-64
2022/04/01 06:49:40;;;;;;;143.33;67.53;;;;;;;3.43;100.00;98632.69;5098509;28;20204;-62
2022/04/01 06:52:07;;;;;;;144.13;67.93;;;;;;;3.49;100.00;98634.34;5095771;28;20184;-62
2022/04/01 06:54:32;;;;;;;132.30;66.10;;;;;;;3.53;100.00;98628.34;5099395;28;20246;-61
2022/04/01 06:56:58;;;;;;;115.27;64.03;;;;;;;3.47;100.00;98624.16;5096737;28;20182;-64
2022/04/01 06:59:23;;;;;;;101.77;57.90;;;;;;;3.28;100.00;98631.06;5080290;28;20205;-64
2022/04/01 07:01:49;;;;;;;89.43;54.30;;;;;;;3.24;100.00;98638.75;5081653;28;20178;-64
2022/04/01 07:04:15;;;;;;;97.33;56.20;;;;;;;3.34;100.00;98633.59;5105574;28;20188;-63
2022/04/01 07:06:41;;;;;;;108.33;59.97;;;;;;;3.34;100.00;98640.41;5085291;28;20178;-61
2022/04/01 07:09:07;;;;;;;107.97;58.60;;;;;;;3.33;100.00;98636.13;5100573;28;20198;-62
2022/04/01 07:11:32;;;;;;;100.07;55.87;;;;;;;3.37;100.00;98642.09;5085225;28;20204;-62
2022/04/01 07:13:58;;;;;;;116.73;62.07;;;;;;;3.41;100.00;98641.22;5093611;28;20173;-64
2022/04/01 07:16:23;;;;;;;92.40;52.23;;;;;;;3.37;100.00;98642.94;5076362;28;20630;-62
2022/04/01 07:18:48;;;;;;;93.03;54.13;;;;;;;3.33;100.00;98648.94;5089386;28;20199;-62
2022/04/01 07:21:14;;;;;;;100.23;53.77;;;;;;;3.20;100.00;98640.50;5087039;28;20185;-62
2022/04/01 07:23:39;;;;;;;98.10;55.87;;;;;;;3.34;100.00;98645.50;5097339;28;20215;-62
2022/04/01 07:26:05;;;;;;;88.40;53.07;;;;;;;3.28;100.00;98637.91;5097666;28;20185;-62
2022/04/01 07:28:30;;;;;;;83.50;49.50;;;;;;;3.23;100.00;98645.59;5096841;28;20661;-64
2022/04/01 07:30:56;;;;;;;94.13;51.37;;;;;;;3.22;100.00;98651.56;5090126;28;20592;-63
2022/04/01 07:33:21;;;;;;;98.73;52.50;;;;;;;3.41;100.00;98639.50;5080847;28;20590;-62
2022/04/01 07:35:47;;;;;;;81.73;49.03;;;;;;;3.30;100.00;98647.25;5081811;28;20185;-62
2022/04/01 07:38:13;;;;;;;82.50;49.40;;;;;;;3.42;100.00;98646.31;5083881;28;20190;-63
2022/04/01 07:40:39;;;;;;;77.40;46.07;;;;;;;3.44;100.00;98643.75;5091861;28;20260;-62
2022/04/01 07:43:05;;;;;;;84.60;50.07;;;;;;;3.60;100.00;98654.75;5075535;28;20281;-62
2022/04/01 07:45:33;;;;;;;93.43;51.03;;;;;;;3.43;100.00;98658.25;5071846;28;20194;-63
2022/04/01 07:47:59;;;;;;;78.97;47.17;;;;;;;3.48;100.00;98655.66;5071631;28;20182;-63
2022/04/01 07:50:25;;;;;;;74.43;46.20;;;;;;;3.57;100.00;98654.75;5070187;28;20229;-62
2022/04/01 07:52:51;;;;;;;68.60;44.47;;;;;;;3.58;100.00;98661.56;5067322;28;20704;-62
2022/04/01 07:55:17;;;;;;;76.20;47.30;;;;;;;3.72;100.00;98658.91;5070647;28;20178;-62
2022/04/01 07:57:45;;;;;;;88.30;50.67;;;;;;;3.86;100.00;98658.81;5069036;28;20269;-61
2022/04/01 08:00:11;;;;;;;92.23;51.33;;;;;;;3.94;100.00;98665.56;5070878;28;20184;-63
2022/04/01 08:02:37;;;;;;;76.10;48.27;;;;;;;3.87;100.00;98657.94;5070707;28;20181;-61
2022/04/01 08:05:02;;;;;;;84.37;50.13;;;;;;;4.02;100.00;98657.81;5073846;28;20431;-64
2022/04/01 08:07:28;;;;;;;64.57;42.80;;;;;;;3.96;100.00;98658.72;5067848;28;20720;-61
2022/04/01 08:09:54;;;;;;;74.83;45.53;;;;;;;4.06;100.00;98661.19;5067607;28;20205;-62
2022/04/01 08:12:20;;;;;;;64.50;41.53;;;;;;;4.01;100.00;98668.91;5069906;28;20186;-62
2022/04/01 08:14:45;;;;;;;51.03;35.57;;;;;;;3.97;100.00;98669.81;5072187;28;20185;-61
2022/04/01 08:17:12;;;;;;;54.83;36.47;;;;;;;4.06;100.00;98676.56;5068090;28;20186;-62
2022/04/01 08:19:42;;;;;;;57.43;38.73;;;;;;;4.12;100.00;98676.53;5072958;28;20201;-63
2022/04/01 08:22:08;;;;;;;63.83;40.67;;;;;;;4.24;100.00;98683.22;5073830;28;20997;-61
2022/04/01 08:24:34;;;;;;;61.27;39.23;;;;;;;4.23;100.00;98684.94;5070793;28;20249;-63
2022/04/01 08:27:00;;;;;;;59.53;36.93;;;;;;;4.16;100.00;98685.00;5067539;28;20273;-62
2022/04/01 08:29:30;;;;;;;55.07;34.50;;;;;;;4.07;100.00;98689.38;5068716;28;20204;-61
2022/04/01 08:31:56;;;;;;;56.37;36.23;;;;;;;4.10;100.00;98685.91;5072992;28;20300;-62
2022/04/01 08:34:24;;;;;;;58.60;35.67;;;;;;;4.07;100.00;98686.81;5068862;28;20185;-61
2022/04/01 08:36:50;;;;;;;58.40;37.40;;;;;;;4.17;100.00;98694.41;5069532;28;20715;-61
2022/04/01 08:39:16;;;;;;;56.23;34.23;;;;;;;4.10;100.00;98696.16;5070133;28;20202;-61
2022/04/01 08:41:42;;;;;;;61.90;37.67;;;;;;;4.13;100.00;98693.56;5071181;28;20554;-61
2022/04/01 08:44:07;;;;;;;64.90;39.67;;;;;;;4.20;100.00;98702.06;5074216;28;20267;-61
2022/04/01 08:46:34;;;;;;;59.50;37.40;;;;;;;4.20;100.00;98697.78;5068537;28;20182;-62
2022/04/01 08:48:59;;;;;;;51.97;34.13;;;;;;;4.19;100.00;98693.50;5071235;28;21567;-62
2022/04/01 08:51:26;;;;;;;57.43;35.40;;;;;;;4.12;100.00;98710.63;5073765;28;20644;-61
2022/04/01 08:53:52;;;;;;;59.87;36.57;;;;;;;4.21;100.00;98709.72;5068214;28;20198;-62
2022/04/01 08:56:20;;;;;;;53.57;35.57;;;;;;;4.17;100.00;98712.31;5069740;28;20186;-62
2022/04/01 08:58:46;;;;;;;51.27;34.50;;;;;;;4.22;100.00;98713.97;5068035;28;20205;-62
2022/04/01 09:01:13;;;;;;;53.07;36.30;;;;;;;4.17;100.00;98715.72;5072921;28;20555;-63
2022/04/01 09:03:39;;;;;;;50.93;35.37;;;;;;;4.19;100.00;98715.72;5060992;28;20609;-62
2022/04/01 09:06:06;;;;;;;52.33;36.77;;;;;;;4.15;100.00;98721.72;5065036;28;20277;-65
2022/04/01 09:08:33;;;;;;;51.27;36.43;;;;;;;4.09;100.00;98723.44;5065102;28;20324;-62
2022/04/01 09:11:11;;;;;;;52.20;36.33;;;;;;;4.06;100.00;98732.88;5077980;28;20660;-61
2022/04/01 09:13:42;;;;;;;57.00;38.90;;;;;;;4.07;100.00;98729.47;5064216;28;20182;-62
2022/04/01 09:16:08;;;;;;;56.50;40.70;;;;;;;3.99;100.00;98731.25;5069300;28;20181;-64
2022/04/01 09:18:44;;;;;;;58.10;39.73;;;;;;;4.00;100.00;98735.50;5072779;28;20784;-61
2022/04/01 09:21:12;;;;;;;56.17;39.77;;;;;;;3.97;100.00;98737.22;5067173;28;20579;-61
2022/04/01 09:23:39;;;;;;;56.60;40.20;;;;;;;4.02;100.00;98739.75;5067856;28;20268;-64
2022/04/01 09:26:05;;;;;;;54.20;39.53;;;;;;;4.00;100.00;98738.91;5066261;28;20193;-62
2022/04/01 09:28:38;;;;;;;57.97;40.87;;;;;;;3.99;100.00;98741.47;5072445;28;20205;-64
2022/04/01 09:31:14;;;;;;;59.13;41.13;;;;;;;4.01;100.00;98743.16;5072528;28;20389;-62
2022/04/01 09:33:42;;;;;;;56.67;39.90;;;;;;;3.99;100.00;98749.16;5069190;28;20588;-63
2022/04/01 09:36:09;;;;;;;60.57;41.17;;;;;;;3.97;100.00;98750.03;5068786;28;20185;-62
2022/04/01 09:38:36;;;;;;;56.17;40.83;;;;;;;3.91;100.00;98755.16;5064695;28;20455;-64
2022/04/01 09:41:04;;;;;;;54.27;39.97;;;;;;;3.85;100.00;98762.91;5072026;28;20650;-64
2022/04/01 09:43:35;;;;;;;49.03;38.20;;;;;;;3.78;100.00;98756.94;5070922;28;20231;-61
2022/04/01 09:46:25;;;;;;;58.10;41.00;;;;;;;3.79;100.00;98770.59;5062522;28;20182;-61
2022/04/01 09:48:55;;;;;;;47.83;37.03;;;;;;;3.71;100.00;98767.22;5064632;28;20971;-64
2022/04/01 09:51:21;;;;;;;48.43;36.83;;;;;;;3.73;100.00;98765.50;5064211;28;20282;-62
2022/04/01 09:53:54;;;;;;;51.67;38.10;;;;;;;3.74;100.00;98765.50;5068622;28;20208;-63
2022/04/01 09:56:55;;;;;;;47.17;36.50;;;;;;;3.77;100.00;98767.19;5067232;28;20193;-64
2022/04/01 09:59:23;;;;;;;51.00;38.60;;;;;;;3.92;100.00;98769.66;5063457;28;20201;-63
2022/04/01 10:01:49;;;;;;;45.37;35.87;;;;;;;3.93;100.00;98770.53;5068756;28;20205;-61
2022/04/01 10:04:14;;;;;;;45.90;35.30;;;;;;;3.96;100.00;98773.03;5055355;28;20674;-62
2022/04/01 10:06:41;;;;;;;51.50;37.50;;;;;;;4.00;100.00;98776.47;5063192;28;20626;-61
2022/04/01 10:09:12;;;;;;;45.70;34.23;;;;;;;3.97;100.00;98780.72;5065441;28;20198;-61
2022/04/01 10:11:42;;;;;;;37.37;31.70;;;;;;;3.96;100.00;98786.72;5076883;28;20208;-61
2022/04/01 10:14:20;;;;;;;39.00;30.83;;;;;;;3.91;100.00;98780.75;5067358;28;20221;-61
2022/04/01 10:16:48;;;;;;;37.67;31.43;;;;;;;3.88;100.00;98782.50;5068034;28;20186;-62
2022/04/01 10:19:18;;;;;;;39.13;32.97;;;;;;;3.87;100.00;98788.47;5069486;28;20205;-62
2022/04/01 10:21:45;;;;;;;39.17;33.03;;;;;;;3.84;100.00;98797.03;5073801;28;20265;-62
2022/04/01 10:24:13;;;;;;;34.63;30.93;;;;;;;3.85;100.00;98796.16;5069509;28;20302;-62
2022/04/01 10:26:45;;;;;;;39.40;33.27;;;;;;;3.95;100.00;98790.13;5067780;28;20214;-61
2022/04/01 10:29:11;;;;;;;37.53;31.40;;;;;;;3.96;100.00;98796.94;5059520;28;20231;-64
2022/04/01 10:31:37;;;;;;;36.53;30.83;;;;;;;4.00;100.00;98797.78;5063837;28;20239;-63
2022/04/01 10:34:23;;;;;;;37.03;31.60;;;;;;;4.08;100.00;98796.00;5078467;28;20193;-62
2022/04/01 10:37:02;;;;;;;37.67;32.50;;;;;;;4.21;100.00;98798.50;5067107;28;20188;-62
2022/04/01 10:39:28;;;;;;;33.37;28.90;;;;;;;4.20;100.00;98805.31;5062182;28;20539;-64
2022/04/01 10:42:12;;;;;;;33.77;28.20;;;;;;;4.27;100.00;98804.44;5061725;28;20243;-62
2022/04/01 10:45:06;;;;;;;30.20;27.00;;;;;;;4.23;100.00;98810.41;5070411;28;20174;-63
2022/04/01 10:53:56;;;;;;;29.47;26.30;;;;;;;4.09;100.00;98814.78;5069067;28;20228;-61
2022/04/01 10:56:24;;;;;;;30.77;27.50;;;;;;;3.99;100.00;98820.84;5066377;28;20182;-62
2022/04/01 10:59:11;;;;;;;29.57;26.47;;;;;;;3.97;100.00;98831.94;5060264;28;20255;-62
2022/04/01 11:01:51;;;;;;;30.27;27.07;;;;;;;3.95;100.00;98823.41;5060007;28;20217;-64
2022/04/01 11:04:17;;;;;;;30.07;26.87;;;;;;;4.02;100.00;98820.78;5075861;28;20550;-62
2022/04/01 11:06:52;;;;;;;29.90;26.70;;;;;;;4.03;100.00;98818.25;5072600;28;20187;-61
2022/04/01 11:09:42;;;;;;;31.93;28.03;;;;;;;4.11;100.00;98825.88;5068682;28;20220;-61
2022/04/01 11:12:18;;;;;;;30.80;26.83;;;;;;;4.20;100.00;98827.53;5072376;28;20241;-64
2022/04/01 11:15:16;;;;;;;31.03;27.77;;;;;;;4.26;100.00;98824.91;5070273;28;20197;-64
2022/04/01 11:17:46;;;;;;;29.80;26.50;;;;;;;4.12;100.00;98825.00;5065810;28;20210;-61
2022/04/01 11:20:26;;;;;;;31.13;27.93;;;;;;;4.26;100.00;98833.47;5068908;28;20190;-62
2022/04/01 11:22:56;;;;;;;29.63;26.73;;;;;;;4.28;100.00;98838.56;5076660;28;20194;-62
2022/04/01 11:25:22;;;;;;;29.03;26.03;;;;;;;4.36;100.00;98825.69;5074322;28;20185;-62
2022/04/01 11:28:02;;;;;;;29.63;26.63;;;;;;;4.37;100.00;98827.41;5074234;28;20182;-62
2022/04/01 11:30:31;;;;;;;27.93;25.20;;;;;;;4.43;100.00;98828.19;5075130;28;20209;-62